createdAt,value
2022-11-13T00:00:18.883Z,12.03
2022-11-13T00:01:18.633Z,12.02
2022-11-13T00:02:19.065Z,12.06
2022-11-13T00:03:18.947Z,12.04
2022-11-13T00:04:18.938Z,11.94
2022-11-13T00:05:18.707Z,12.04
2022-11-13T00:06:18.950Z,11.91
2022-11-13T00:07:19.289Z,12.02
2022-11-13T00:08:18.760Z,12.04
2022-11-13T00:09:19.050Z,11.94
2022-11-13T00:10:19.050Z,12
2022-11-13T00:11:18.629Z,11.94
2022-11-13T00:12:19.539Z,11.95
2022-11-13T00:13:19.112Z,11.99
2022-11-13T00:14:19.123Z,12
2022-11-13T00:15:18.871Z,11.99
2022-11-13T00:16:18.900Z,11.94
2022-11-13T00:17:19.244Z,12.03
2022-11-13T00:18:18.928Z,11.84
2022-11-13T00:19:18.939Z,11.87
2022-11-13T00:20:18.688Z,11.83
2022-11-13T00:21:19.035Z,11.95
2022-11-13T00:22:19.252Z,11.87
2022-11-13T00:23:19.405Z,11.9
2022-11-13T00:24:19.291Z,11.97
2022-11-13T00:25:19.046Z,11.95
2022-11-13T00:26:19.322Z,11.9
2022-11-13T00:27:18.830Z,11.87
2022-11-13T00:28:19.598Z,11.91
2022-11-13T00:29:19.366Z,11.91
2022-11-13T00:30:23.796Z,12.02
2022-11-13T00:31:19.160Z,11.87
2022-11-13T00:32:19.165Z,11.9
2022-11-13T00:34:19.929Z,11.91
2022-11-13T00:35:05.580Z,11.95
2022-11-13T00:36:05.852Z,11.95
2022-11-13T00:37:05.629Z,11.9
2022-11-13T00:38:06.184Z,11.94
2022-11-13T00:39:05.759Z,11.88
2022-11-13T00:40:05.408Z,11.9
2022-11-13T00:41:05.432Z,11.95
2022-11-13T00:42:06.113Z,11.87
2022-11-13T00:43:05.717Z,11.94
2022-11-13T00:44:05.973Z,11.95
2022-11-13T00:45:05.987Z,11.91
2022-11-13T00:46:06.018Z,11.88
2022-11-13T00:47:05.786Z,11.91
2022-11-13T00:48:05.796Z,11.91
2022-11-13T00:49:05.823Z,11.91
2022-11-13T00:50:06.097Z,11.94
2022-11-13T00:51:06.099Z,11.97
2022-11-13T00:52:06.117Z,11.88
2022-11-13T00:53:05.614Z,11.99
2022-11-13T00:54:05.891Z,11.94
2022-11-13T00:55:06.295Z,11.91
2022-11-13T00:56:06.183Z,11.88
2022-11-13T00:57:05.690Z,11.94
2022-11-13T00:58:05.707Z,11.87
2022-11-13T00:59:06.232Z,11.94
2022-11-13T01:00:06.502Z,11.9
2022-11-13T01:01:06.016Z,11.86
2022-11-13T01:02:06.253Z,11.9
2022-11-13T01:03:06.052Z,11.88
2022-11-13T01:04:06.064Z,11.86
2022-11-13T01:05:06.075Z,11.94
2022-11-13T01:06:06.363Z,11.88
2022-11-13T01:07:06.563Z,11.86
2022-11-13T01:08:06.120Z,11.86
2022-11-13T01:09:06.147Z,11.94
2022-11-13T01:10:06.157Z,11.87
2022-11-13T01:11:06.562Z,11.88
2022-11-13T01:12:06.454Z,11.84
2022-11-13T01:13:06.482Z,11.84
2022-11-13T01:14:06.493Z,11.83
2022-11-13T01:15:06.517Z,11.87
2022-11-13T01:16:06.749Z,11.86
2022-11-13T01:17:06.291Z,11.84
2022-11-13T01:18:06.560Z,11.81
2022-11-13T01:19:06.714Z,11.86
2022-11-13T01:20:06.323Z,11.84
2022-11-13T01:21:06.351Z,11.83
2022-11-13T01:22:06.628Z,11.88
2022-11-13T01:23:06.389Z,11.84
2022-11-13T01:24:06.670Z,11.8
2022-11-13T01:25:06.671Z,11.84
2022-11-13T01:26:06.440Z,11.86
2022-11-13T01:27:06.563Z,11.81
2022-11-13T01:28:06.491Z,11.83
2022-11-13T01:29:06.497Z,11.84
2022-11-13T01:30:06.512Z,11.86
2022-11-13T01:31:06.783Z,11.81
2022-11-13T01:32:07.036Z,11.84
2022-11-13T01:33:06.387Z,11.83
2022-11-13T01:34:06.833Z,11.83
2022-11-13T01:35:06.863Z,11.75
2022-11-13T01:36:06.864Z,11.84
2022-11-13T01:37:06.889Z,11.81
2022-11-13T01:38:06.739Z,11.8
2022-11-13T01:39:06.400Z,11.8
2022-11-13T01:40:06.929Z,11.78
2022-11-13T01:41:06.951Z,11.8
2022-11-13T01:42:06.715Z,11.81
2022-11-13T01:43:07.098Z,11.86
2022-11-13T01:44:13.284Z,11.81
2022-11-13T01:45:07.012Z,11.81
2022-11-13T01:46:07.030Z,11.8
2022-11-13T01:47:07.055Z,11.81
2022-11-13T01:48:07.304Z,11.73
2022-11-13T01:49:07.089Z,11.86
2022-11-13T01:50:07.106Z,11.86
2022-11-13T01:51:07.118Z,11.8
2022-11-13T01:52:06.891Z,11.81
2022-11-13T01:53:07.153Z,11.87
2022-11-13T01:54:07.167Z,11.77
2022-11-13T01:55:07.199Z,11.8
2022-11-13T01:56:07.199Z,11.77
2022-11-13T01:57:07.218Z,11.77
2022-11-13T01:58:07.240Z,11.78
2022-11-13T01:59:07.371Z,11.72
2022-11-13T02:00:07.267Z,11.81
2022-11-13T02:01:07.026Z,11.8
2022-11-13T02:02:07.311Z,11.77
2022-11-13T02:03:07.330Z,11.78
2022-11-13T02:04:07.332Z,11.81
2022-11-13T02:05:07.357Z,11.75
2022-11-13T02:06:07.382Z,11.73
2022-11-13T02:07:07.338Z,11.86
2022-11-13T02:08:07.147Z,11.75
2022-11-13T02:09:07.428Z,11.7
2022-11-13T02:10:07.471Z,11.73
2022-11-13T02:11:07.466Z,11.73
2022-11-13T02:12:07.221Z,11.81
2022-11-13T02:13:07.547Z,11.75
2022-11-13T02:14:07.254Z,11.77
2022-11-13T02:15:07.641Z,11.77
2022-11-13T02:16:07.546Z,11.8
2022-11-13T02:17:07.718Z,11.8
2022-11-13T02:18:07.722Z,11.8
2022-11-13T02:19:07.329Z,11.69
2022-11-13T02:20:07.747Z,11.69
2022-11-13T02:21:07.847Z,11.81
2022-11-13T02:22:07.485Z,11.77
2022-11-13T02:23:07.703Z,11.8
2022-11-13T02:24:07.214Z,11.77
2022-11-13T02:25:07.466Z,11.77
2022-11-13T02:26:07.765Z,11.7
2022-11-13T02:27:07.463Z,11.77
2022-11-13T02:28:07.739Z,11.72
2022-11-13T02:29:07.515Z,11.7
2022-11-13T02:30:12.814Z,11.68
2022-11-13T02:31:07.921Z,11.7
2022-11-13T02:32:07.808Z,11.69
2022-11-13T02:33:07.569Z,11.7
2022-11-13T02:34:07.763Z,11.7
2022-11-13T02:35:07.348Z,11.69
2022-11-13T02:36:08.167Z,11.72
2022-11-13T02:37:07.633Z,11.7
2022-11-13T02:38:07.597Z,11.73
2022-11-13T02:39:07.671Z,11.66
2022-11-13T02:40:07.936Z,11.7
2022-11-13T02:41:07.958Z,11.65
2022-11-13T02:42:07.467Z,11.66
2022-11-13T02:43:07.741Z,11.7
2022-11-13T02:44:07.753Z,11.68
2022-11-13T02:45:08.024Z,11.7
2022-11-13T02:46:08.055Z,11.72
2022-11-13T02:47:08.182Z,11.65
2022-11-13T02:48:07.853Z,11.66
2022-11-13T02:49:07.841Z,11.69
2022-11-13T02:50:07.842Z,11.7
2022-11-13T02:51:08.122Z,11.6
2022-11-13T02:52:08.123Z,11.69
2022-11-13T02:53:07.921Z,11.59
2022-11-13T02:54:08.752Z,11.6
2022-11-13T02:55:08.205Z,11.6
2022-11-13T02:56:07.941Z,11.57
2022-11-13T02:57:07.713Z,11.59
2022-11-13T02:58:08.249Z,11.63
2022-11-13T02:59:08.271Z,11.5
2022-11-13T03:00:14.670Z,11.55
2022-11-13T03:01:08.294Z,11.54
2022-11-13T03:02:08.010Z,11.6
2022-11-13T03:03:08.446Z,11.54
2022-11-13T03:04:08.351Z,11.57
2022-11-13T03:05:17.404Z,11.52
2022-11-13T03:06:08.129Z,11.63
2022-11-13T03:07:08.644Z,11.57
2022-11-13T03:08:08.405Z,11.62
2022-11-13T03:09:08.167Z,11.52
2022-11-13T03:10:08.453Z,11.54
2022-11-13T03:11:08.214Z,11.57
2022-11-13T03:12:08.469Z,11.68
2022-11-13T03:13:08.229Z,11.57
2022-11-13T03:14:08.246Z,11.59
2022-11-13T03:15:08.272Z,11.59
2022-11-13T03:16:08.542Z,11.55
2022-11-13T03:17:08.298Z,11.55
2022-11-13T03:18:08.334Z,11.57
2022-11-13T03:19:09.244Z,11.51
2022-11-13T03:20:08.356Z,11.52
2022-11-13T03:21:08.617Z,11.5
2022-11-13T03:22:08.386Z,11.59
2022-11-13T03:23:08.666Z,11.59
2022-11-13T03:24:08.665Z,11.51
2022-11-13T03:25:14.997Z,11.57
2022-11-13T03:26:08.456Z,11.57
2022-11-13T03:27:08.735Z,11.51
2022-11-13T03:28:08.488Z,11.52
2022-11-13T03:29:08.764Z,11.44
2022-11-13T03:30:08.537Z,11.48
2022-11-13T03:31:08.538Z,11.41
2022-11-13T03:32:08.827Z,11.52
2022-11-13T03:33:08.574Z,11.48
2022-11-13T03:34:08.843Z,11.5
2022-11-13T03:35:08.985Z,11.5
2022-11-13T03:36:08.617Z,11.5
2022-11-13T03:37:08.908Z,11.45
2022-11-13T03:38:09.017Z,11.52
2022-11-13T03:39:08.935Z,11.5
2022-11-13T03:40:08.981Z,11.47
2022-11-13T03:41:08.443Z,11.48
2022-11-13T03:42:08.985Z,11.43
2022-11-13T03:43:08.746Z,11.47
2022-11-13T03:44:09.019Z,11.54
2022-11-13T03:45:09.022Z,11.48
2022-11-13T03:46:08.803Z,11.41
2022-11-13T03:47:08.800Z,11.4
2022-11-13T03:48:08.828Z,11.44
2022-11-13T03:49:09.102Z,11.44
2022-11-13T03:50:08.601Z,11.47
2022-11-13T03:51:08.987Z,11.4
2022-11-13T03:52:09.151Z,11.43
2022-11-13T03:53:09.155Z,11.48
2022-11-13T03:54:09.193Z,11.5
2022-11-13T03:55:08.691Z,11.51
2022-11-13T03:56:09.447Z,11.43
2022-11-13T03:57:09.238Z,11.51
2022-11-13T03:58:08.987Z,11.4
2022-11-13T03:59:08.746Z,11.41
2022-11-13T04:00:09.019Z,11.43
2022-11-13T04:01:09.319Z,11.41
2022-11-13T04:02:09.502Z,11.41
2022-11-13T04:03:09.335Z,11.37
2022-11-13T04:04:09.089Z,11.37
2022-11-13T04:05:09.363Z,11.43
2022-11-13T04:06:09.116Z,11.41
2022-11-13T04:07:09.698Z,11.47
2022-11-13T04:08:09.414Z,11.43
2022-11-13T04:09:08.945Z,11.33
2022-11-13T04:10:09.447Z,11.32
2022-11-13T04:11:09.464Z,11.41
2022-11-13T04:12:09.463Z,11.32
2022-11-13T04:13:08.980Z,11.32
2022-11-13T04:14:09.509Z,11.35
2022-11-13T04:15:09.333Z,11.41
2022-11-13T04:16:09.547Z,11.25
2022-11-13T04:17:09.308Z,11.41
2022-11-13T04:18:09.575Z,11.44
2022-11-13T04:19:09.349Z,11.32
2022-11-13T04:20:09.353Z,11.44
2022-11-13T04:21:09.643Z,11.44
2022-11-13T04:22:09.387Z,11.32
2022-11-13T04:23:09.560Z,11.4
2022-11-13T04:24:09.416Z,11.36
2022-11-13T04:25:09.438Z,11.41
2022-11-13T04:26:09.703Z,11.37
2022-11-13T04:27:09.725Z,11.35
2022-11-13T04:28:09.973Z,11.36
2022-11-13T04:29:09.508Z,11.32
2022-11-13T04:30:09.773Z,11.33
2022-11-13T04:31:09.798Z,11.36
2022-11-13T04:32:09.810Z,11.35
2022-11-13T04:33:09.828Z,11.32
2022-11-13T04:34:09.839Z,11.35
2022-11-13T04:35:09.854Z,11.36
2022-11-13T04:36:09.868Z,11.32
2022-11-13T04:37:09.641Z,11.29
2022-11-13T04:38:09.754Z,11.35
2022-11-13T04:39:10.052Z,11.33
2022-11-13T04:40:09.935Z,11.33
2022-11-13T04:41:09.699Z,11.35
2022-11-13T04:42:09.717Z,11.36
2022-11-13T04:43:09.737Z,11.36
2022-11-13T04:44:10.253Z,11.32
2022-11-13T04:45:09.507Z,11.3
2022-11-13T04:46:10.042Z,11.36
2022-11-13T04:47:09.805Z,11.33
2022-11-13T04:48:09.674Z,11.32
2022-11-13T04:49:10.088Z,11.27
2022-11-13T04:50:09.859Z,11.32
2022-11-13T04:51:09.865Z,11.32
2022-11-13T04:52:10.144Z,11.26
2022-11-13T04:53:10.149Z,11.25
2022-11-13T04:54:09.913Z,11.3
2022-11-13T04:55:10.321Z,11.29
2022-11-13T04:56:09.950Z,11.29
2022-11-13T04:57:10.215Z,11.23
2022-11-13T04:58:10.242Z,11.25
2022-11-13T04:59:09.748Z,11.18
2022-11-13T05:00:10.414Z,11.27
2022-11-13T05:01:10.039Z,11.23
2022-11-13T05:02:09.889Z,11.18
2022-11-13T05:03:10.326Z,11.19
2022-11-13T05:04:09.825Z,11.15
2022-11-13T05:05:10.354Z,11.14
2022-11-13T05:06:10.122Z,11.12
2022-11-13T05:07:10.172Z,11.19
2022-11-13T05:08:10.407Z,11.15
2022-11-13T05:09:10.162Z,11.17
2022-11-13T05:10:10.441Z,11.12
2022-11-13T05:11:10.597Z,11.14
2022-11-13T05:12:10.487Z,11.12
2022-11-13T05:13:10.485Z,11.15
2022-11-13T05:14:10.256Z,11.22
2022-11-13T05:15:10.261Z,11.19
2022-11-13T05:16:10.780Z,11.18
2022-11-13T05:17:10.038Z,11.22
2022-11-13T05:18:10.573Z,11.22
2022-11-13T05:19:10.580Z,11.19
2022-11-13T05:20:10.606Z,11.12
2022-11-13T05:21:10.372Z,11.15
2022-11-13T05:22:10.637Z,11.11
2022-11-13T05:23:10.666Z,11.12
2022-11-13T05:24:10.403Z,11.14
2022-11-13T05:25:10.435Z,11.15
2022-11-13T05:26:10.707Z,11.1
2022-11-13T05:27:17.671Z,11.12
2022-11-13T05:28:10.480Z,11.1
2022-11-13T05:29:10.233Z,11.17
2022-11-13T05:30:10.620Z,11.15
2022-11-13T05:31:10.528Z,11.08
2022-11-13T05:32:10.836Z,11.12
2022-11-13T05:33:10.559Z,11.1
2022-11-13T05:34:11.238Z,11.12
2022-11-13T05:35:10.845Z,11.11
2022-11-13T05:36:10.616Z,11.15
2022-11-13T05:37:10.640Z,11.14
2022-11-13T05:38:10.934Z,11.11
2022-11-13T05:39:10.916Z,11.1
2022-11-13T05:40:10.932Z,11.14
2022-11-13T05:41:10.694Z,11.12
2022-11-13T05:42:10.966Z,11.12
2022-11-13T05:43:11.008Z,11.14
2022-11-13T05:44:10.743Z,11.12
2022-11-13T05:45:11.017Z,11.02
2022-11-13T05:46:10.516Z,11.12
2022-11-13T05:47:11.045Z,11.1
2022-11-13T05:48:11.301Z,11.1
2022-11-13T05:49:11.080Z,11.07
2022-11-13T05:50:11.097Z,11
2022-11-13T05:51:10.852Z,11.07
2022-11-13T05:52:10.868Z,11.05
2022-11-13T05:53:10.892Z,11.05
2022-11-13T05:54:11.178Z,11.05
2022-11-13T05:55:10.664Z,11
2022-11-13T05:56:11.192Z,11.02
2022-11-13T05:57:11.214Z,11
2022-11-13T05:58:11.232Z,11.05
2022-11-13T05:59:11.107Z,10.97
2022-11-13T06:00:11.259Z,11.02
2022-11-13T06:01:11.027Z,11.05
2022-11-13T06:02:11.107Z,11.02
2022-11-13T06:03:11.062Z,10.99
2022-11-13T06:04:11.293Z,11.02
2022-11-13T06:05:11.100Z,11.04
2022-11-13T06:06:11.103Z,11.02
2022-11-13T06:07:11.280Z,11.02
2022-11-13T06:08:11.131Z,10.94
2022-11-13T06:09:11.161Z,11.05
2022-11-13T06:10:11.170Z,10.97
2022-11-13T06:11:11.184Z,10.99
2022-11-13T06:12:11.460Z,11.07
2022-11-13T06:13:11.478Z,11
2022-11-13T06:14:11.234Z,11.07
2022-11-13T06:15:11.641Z,11.02
2022-11-13T06:16:11.261Z,11
2022-11-13T06:17:11.538Z,10.97
2022-11-13T06:18:11.303Z,10.93
2022-11-13T06:19:11.589Z,10.94
2022-11-13T06:20:11.825Z,10.92
2022-11-13T06:21:11.091Z,10.96
2022-11-13T06:22:11.622Z,11.04
2022-11-13T06:23:11.640Z,10.87
2022-11-13T06:24:11.397Z,10.94
2022-11-13T06:25:11.419Z,10.97
2022-11-13T06:26:11.694Z,10.92
2022-11-13T06:27:11.439Z,10.92
2022-11-13T06:28:11.724Z,10.99
2022-11-13T06:29:11.750Z,10.93
2022-11-13T06:30:11.755Z,10.87
2022-11-13T06:31:11.886Z,10.89
2022-11-13T06:32:11.540Z,10.89
2022-11-13T06:33:11.538Z,10.93
2022-11-13T06:34:11.831Z,10.87
2022-11-13T06:35:11.576Z,10.84
2022-11-13T06:36:12.083Z,10.9
2022-11-13T06:37:11.867Z,10.82
2022-11-13T06:38:11.935Z,10.89
2022-11-13T06:39:11.977Z,10.9
2022-11-13T06:40:11.667Z,10.81
2022-11-13T06:41:11.940Z,10.9
2022-11-13T06:42:11.704Z,10.81
2022-11-13T06:43:11.971Z,10.81
2022-11-13T06:44:11.993Z,10.81
2022-11-13T06:45:11.751Z,10.81
2022-11-13T06:46:11.761Z,10.79
2022-11-13T06:47:12.184Z,10.92
2022-11-13T06:48:12.046Z,10.86
2022-11-13T06:49:12.069Z,10.84
2022-11-13T06:50:12.077Z,10.9
2022-11-13T06:51:11.844Z,10.86
2022-11-13T06:52:12.358Z,10.86
2022-11-13T06:53:11.870Z,10.92
2022-11-13T06:54:11.897Z,10.87
2022-11-13T06:55:11.942Z,10.74
2022-11-13T06:56:11.921Z,10.93
2022-11-13T06:57:12.211Z,10.86
2022-11-13T06:58:12.241Z,10.78
2022-11-13T06:59:13.238Z,10.92
2022-11-13T07:00:12.330Z,10.84
2022-11-13T07:01:12.141Z,10.97
2022-11-13T07:02:12.279Z,10.86
2022-11-13T07:03:12.432Z,10.84
2022-11-13T07:04:12.056Z,10.92
2022-11-13T07:05:12.079Z,10.79
2022-11-13T07:06:12.346Z,10.79
2022-11-13T07:07:12.359Z,10.76
2022-11-13T07:08:12.612Z,10.81
2022-11-13T07:09:12.393Z,10.92
2022-11-13T07:10:12.159Z,10.84
2022-11-13T07:11:12.445Z,10.9
2022-11-13T07:12:11.927Z,10.86
2022-11-13T07:13:12.212Z,10.9
2022-11-13T07:14:12.469Z,10.78
2022-11-13T07:15:12.490Z,10.89
2022-11-13T07:16:21.823Z,10.93
2022-11-13T07:17:15.361Z,10.81
2022-11-13T07:18:12.545Z,10.96
2022-11-13T07:19:12.684Z,10.96
2022-11-13T07:20:12.566Z,10.92
2022-11-13T07:21:12.597Z,10.94
2022-11-13T07:22:12.615Z,10.96
2022-11-13T07:23:12.361Z,10.9
2022-11-13T07:24:19.819Z,10.97
2022-11-13T07:25:12.662Z,10.99
2022-11-13T07:26:12.420Z,10.93
2022-11-13T07:27:12.695Z,10.94
2022-11-13T07:28:12.442Z,10.9
2022-11-13T07:29:12.467Z,10.97
2022-11-13T07:30:12.755Z,10.96
2022-11-13T07:31:12.508Z,11.07
2022-11-13T07:32:13.232Z,11.07
2022-11-13T07:33:12.896Z,10.97
2022-11-13T07:34:12.540Z,10.94
2022-11-13T07:35:12.934Z,10.99
2022-11-13T07:36:12.322Z,11.05
2022-11-13T07:37:12.597Z,10.99
2022-11-13T07:38:13.144Z,11.02
2022-11-13T07:39:12.893Z,11.04
2022-11-13T07:40:12.996Z,11.04
2022-11-13T07:41:12.942Z,11.1
2022-11-13T07:42:12.679Z,11.07
2022-11-13T07:43:12.949Z,11.04
2022-11-13T07:44:48.289Z,11.07
2022-11-13T07:45:13.002Z,11.04
2022-11-13T07:46:12.891Z,11.12
2022-11-13T07:47:12.506Z,11.14
2022-11-13T07:48:12.931Z,11.18
2022-11-13T07:49:12.903Z,11.12
2022-11-13T07:50:15.546Z,11.18
2022-11-13T07:51:12.945Z,11.17
2022-11-13T07:52:13.106Z,11.15
2022-11-13T07:53:13.120Z,11.19
2022-11-13T07:54:13.131Z,11.15
2022-11-13T07:55:13.145Z,11.12
2022-11-13T07:56:13.154Z,11.14
2022-11-13T07:57:12.933Z,11.22
2022-11-13T07:58:13.199Z,11.17
2022-11-13T07:59:13.217Z,11.27
2022-11-13T08:00:12.719Z,11.35
2022-11-13T08:01:13.432Z,11.23
2022-11-13T08:02:13.009Z,11.23
2022-11-13T08:03:13.283Z,11.27
2022-11-13T08:04:13.046Z,11.29
2022-11-13T08:05:13.071Z,11.36
2022-11-13T08:06:13.075Z,11.27
2022-11-13T08:07:13.449Z,11.3
2022-11-13T08:08:13.361Z,11.35
2022-11-13T08:09:13.381Z,11.36
2022-11-13T08:10:13.385Z,11.35
2022-11-13T08:11:13.415Z,11.32
2022-11-13T08:12:13.665Z,11.36
2022-11-13T08:13:13.211Z,11.23
2022-11-13T08:14:13.199Z,11.27
2022-11-13T08:15:18.202Z,11.41
2022-11-13T08:16:13.500Z,11.35
2022-11-13T08:17:13.524Z,11.41
2022-11-13T08:18:13.025Z,11.45
2022-11-13T08:19:13.286Z,11.52
2022-11-13T08:20:13.556Z,11.41
2022-11-13T08:21:19.490Z,11.5
2022-11-13T08:22:13.337Z,11.5
2022-11-13T08:23:13.469Z,11.48
2022-11-13T08:24:13.624Z,11.51
2022-11-13T08:25:13.640Z,11.62
2022-11-13T08:26:13.658Z,11.57
2022-11-13T08:27:13.420Z,11.62
2022-11-13T08:28:18.337Z,11.59
2022-11-13T08:29:13.477Z,11.62
2022-11-13T08:30:13.477Z,11.6
2022-11-13T08:31:13.745Z,11.55
2022-11-13T08:32:13.811Z,11.68
2022-11-13T08:33:13.524Z,11.7
2022-11-13T08:34:13.539Z,11.62
2022-11-13T08:35:21.363Z,11.73
2022-11-13T08:36:13.830Z,11.66
2022-11-13T08:37:13.583Z,11.73
2022-11-13T08:38:13.972Z,11.72
2022-11-13T08:39:13.737Z,11.68
2022-11-13T08:40:13.637Z,11.73
2022-11-13T08:41:14.699Z,11.78
2022-11-13T08:42:13.673Z,11.87
2022-11-13T08:43:13.687Z,11.77
2022-11-13T08:44:14.215Z,11.77
2022-11-13T08:45:13.979Z,11.8
2022-11-13T08:46:13.997Z,11.84
2022-11-13T08:47:13.757Z,11.78
2022-11-13T08:48:13.769Z,11.84
2022-11-13T08:49:14.079Z,11.84
2022-11-13T08:50:13.806Z,11.83
2022-11-13T08:51:13.817Z,11.86
2022-11-13T08:52:14.116Z,11.84
2022-11-13T08:53:14.115Z,11.84
2022-11-13T08:54:14.143Z,11.87
2022-11-13T08:55:14.272Z,11.84
2022-11-13T08:56:14.172Z,11.88
2022-11-13T08:57:14.194Z,11.87
2022-11-13T08:58:14.199Z,11.94
2022-11-13T08:59:13.698Z,11.87
2022-11-13T09:00:14.215Z,11.91
2022-11-13T09:01:14.266Z,11.9
2022-11-13T09:02:13.757Z,11.97
2022-11-13T09:03:13.761Z,11.87
2022-11-13T09:04:14.253Z,11.94
2022-11-13T09:05:14.323Z,11.9
2022-11-13T09:06:14.079Z,11.9
2022-11-13T09:07:14.169Z,11.9
2022-11-13T09:08:14.366Z,11.9
2022-11-13T09:09:14.127Z,12
2022-11-13T09:10:14.409Z,11.94
2022-11-13T09:11:14.540Z,11.99
2022-11-13T09:12:14.430Z,11.88
2022-11-13T09:13:14.233Z,11.95
2022-11-13T09:14:14.467Z,11.9
2022-11-13T09:15:14.489Z,12
2022-11-13T09:16:14.484Z,11.97
2022-11-13T09:17:14.254Z,12.09
2022-11-13T09:18:14.272Z,12.03
2022-11-13T09:19:14.561Z,11.97
2022-11-13T09:20:23.755Z,12.02
2022-11-13T09:21:14.336Z,12.02
2022-11-13T09:22:14.347Z,12.07
2022-11-13T09:23:14.367Z,12.06
2022-11-13T09:24:14.645Z,11.99
2022-11-13T09:25:14.653Z,12.07
2022-11-13T09:26:14.669Z,12.07
2022-11-13T09:27:14.558Z,12.1
2022-11-13T09:28:14.704Z,12.12
2022-11-13T09:29:14.737Z,12.1
2022-11-13T09:30:14.738Z,12.12
2022-11-13T09:31:14.757Z,12.12
2022-11-13T09:32:15.006Z,12.09
2022-11-13T09:33:14.797Z,12.13
2022-11-13T09:34:14.555Z,12.09
2022-11-13T09:35:14.827Z,12.13
2022-11-13T09:36:14.840Z,12.17
2022-11-13T09:37:14.852Z,12.1
2022-11-13T09:38:16.215Z,12.04
2022-11-13T09:39:14.900Z,12.17
2022-11-13T09:40:14.655Z,12.02
2022-11-13T09:41:14.673Z,12.06
2022-11-13T09:42:14.428Z,12.04
2022-11-13T09:43:15.067Z,12.09
2022-11-13T09:44:14.974Z,12.04
2022-11-13T09:45:14.746Z,12.06
2022-11-13T09:46:14.750Z,12.15
2022-11-13T09:47:14.766Z,12.17
2022-11-13T09:48:15.020Z,12.1
2022-11-13T09:49:14.812Z,12.15
2022-11-13T09:50:14.563Z,12.1
2022-11-13T09:51:14.845Z,12.07
2022-11-13T09:52:14.598Z,12.1
2022-11-13T09:53:14.865Z,12.13
2022-11-13T09:54:15.146Z,12.13
2022-11-13T09:55:14.909Z,12.15
2022-11-13T09:56:15.376Z,12.18
2022-11-13T09:57:15.327Z,12.18
2022-11-13T09:58:15.372Z,12.18
2022-11-13T09:59:15.347Z,12.13
2022-11-13T10:00:15.298Z,12.18
2022-11-13T10:01:15.534Z,12.21
2022-11-13T10:02:15.072Z,12.12
2022-11-13T10:03:15.716Z,12.21
2022-11-13T10:04:20.056Z,12.18
2022-11-13T10:05:17.023Z,12.2
2022-11-13T10:06:17.037Z,12.2
2022-11-13T10:07:17.040Z,12.15
2022-11-13T10:08:17.334Z,12.15
2022-11-13T10:09:17.087Z,12.13
2022-11-13T10:10:17.117Z,12.2
2022-11-13T10:11:17.740Z,12.17
2022-11-13T10:12:17.401Z,12.27
2022-11-13T10:13:17.153Z,12.2
2022-11-13T10:14:17.436Z,12.18
2022-11-13T10:15:17.307Z,12.15
2022-11-13T10:16:16.954Z,12.24
2022-11-13T10:17:17.219Z,12.24
2022-11-13T10:18:17.509Z,12.13
2022-11-13T10:19:17.258Z,12.15
2022-11-13T10:20:17.984Z,12.21
2022-11-13T10:21:17.289Z,12.2
2022-11-13T10:22:37.632Z,12.15
2022-11-13T10:23:17.779Z,12.21
2022-11-13T10:24:19.353Z,12.12
2022-11-13T10:25:17.258Z,12.25
2022-11-13T10:26:17.486Z,12.29
2022-11-13T10:27:17.444Z,12.31
2022-11-13T10:28:53.815Z,12.22
2022-11-13T10:29:18.096Z,12.21
2022-11-13T10:30:17.445Z,12.25
2022-11-13T10:31:17.851Z,12.31
2022-11-13T10:32:17.471Z,12.18
2022-11-13T10:33:17.491Z,12.35
2022-11-13T10:34:17.529Z,12.28
2022-11-13T10:35:17.536Z,12.22
2022-11-13T10:36:18.039Z,12.25
2022-11-13T10:37:17.818Z,12.21
2022-11-13T10:38:18.136Z,12.31
2022-11-13T10:39:17.858Z,12.31
2022-11-13T10:40:17.610Z,12.29
2022-11-13T10:41:17.878Z,12.22
2022-11-13T10:42:17.909Z,12.22
2022-11-13T10:43:18.301Z,12.2
2022-11-13T10:44:17.670Z,12.24
2022-11-13T10:45:17.701Z,12.28
2022-11-13T10:46:17.718Z,12.27
2022-11-13T10:47:31.184Z,12.24
2022-11-13T10:48:17.740Z,12.32
2022-11-13T10:49:18.643Z,12.28
2022-11-13T10:50:17.670Z,12.25
2022-11-13T10:51:17.789Z,12.21
2022-11-13T10:52:18.312Z,12.18
2022-11-13T10:53:18.091Z,12.27
2022-11-13T10:54:18.111Z,12.25
2022-11-13T10:55:17.866Z,12.35
2022-11-13T10:56:18.136Z,12.25
2022-11-13T10:57:18.156Z,12.29
2022-11-13T10:58:18.173Z,12.24
2022-11-13T10:59:17.939Z,12.25
2022-11-13T11:00:18.274Z,12.25
2022-11-13T11:01:18.132Z,12.32
2022-11-13T11:02:18.253Z,12.28
2022-11-13T11:03:18.406Z,12.24
2022-11-13T11:04:18.017Z,12.28
2022-11-13T11:05:18.031Z,12.29
2022-11-13T11:06:18.314Z,12.25
2022-11-13T11:07:25.567Z,12.32
2022-11-13T11:08:18.419Z,12.43
2022-11-13T11:09:18.359Z,12.32
2022-11-13T11:10:18.116Z,12.32
2022-11-13T11:11:18.404Z,12.36
2022-11-13T11:12:18.409Z,12.31
2022-11-13T11:13:18.429Z,12.35
2022-11-13T11:14:18.459Z,12.35
2022-11-13T11:15:18.462Z,12.37
2022-11-13T11:16:18.474Z,12.32
2022-11-13T11:17:18.235Z,12.4
2022-11-13T11:18:17.995Z,12.42
2022-11-13T11:19:18.652Z,12.36
2022-11-13T11:20:18.291Z,12.46
2022-11-13T11:21:18.561Z,12.42
2022-11-13T11:22:18.575Z,12.43
2022-11-13T11:23:18.571Z,12.49
2022-11-13T11:24:18.349Z,12.46
2022-11-13T11:25:18.631Z,12.55
2022-11-13T11:26:18.651Z,12.58
2022-11-13T11:27:18.408Z,12.4
2022-11-13T11:28:18.426Z,12.53
2022-11-13T11:29:18.183Z,12.53
2022-11-13T11:30:18.792Z,12.47
2022-11-13T11:31:18.482Z,12.46
2022-11-13T11:32:18.744Z,12.46
2022-11-13T11:33:18.778Z,12.54
2022-11-13T11:34:18.539Z,12.54
2022-11-13T11:35:18.936Z,12.61
2022-11-13T11:36:18.556Z,12.6
2022-11-13T11:37:18.834Z,12.47
2022-11-13T11:38:18.702Z,12.55
2022-11-13T11:39:19.116Z,12.62
2022-11-13T11:40:18.895Z,12.58
2022-11-13T11:41:21.605Z,12.57
2022-11-13T11:42:18.699Z,12.58
2022-11-13T11:43:18.683Z,12.7
2022-11-13T11:44:18.971Z,12.7
2022-11-13T11:45:18.717Z,12.73
2022-11-13T11:46:19.004Z,12.75
2022-11-13T11:47:19.015Z,12.75
2022-11-13T11:48:18.774Z,12.68
2022-11-13T11:49:19.060Z,12.67
2022-11-13T11:50:18.953Z,12.73
2022-11-13T11:51:19.205Z,12.72
2022-11-13T11:52:18.845Z,12.78
2022-11-13T11:53:19.118Z,12.76
2022-11-13T11:54:19.134Z,12.75
2022-11-13T11:55:19.121Z,12.78
2022-11-13T11:56:19.167Z,12.79
2022-11-13T11:57:18.934Z,12.8
2022-11-13T11:58:19.209Z,12.8
2022-11-13T11:59:19.211Z,12.83
2022-11-13T12:00:19.045Z,12.87
2022-11-13T12:01:19.005Z,12.78
2022-11-13T12:02:19.012Z,12.86
2022-11-13T12:03:18.783Z,12.87
2022-11-13T12:04:19.047Z,12.87
2022-11-13T12:05:24.834Z,12.94
2022-11-13T12:06:19.345Z,12.91
2022-11-13T12:07:19.689Z,12.98
2022-11-13T12:08:19.369Z,12.91
2022-11-13T12:09:18.884Z,13
2022-11-13T12:10:19.152Z,12.98
2022-11-13T12:11:19.661Z,12.98
2022-11-13T12:12:19.188Z,13.03
2022-11-13T12:13:19.202Z,13.05
2022-11-13T12:14:19.226Z,13.11
2022-11-13T12:15:19.260Z,13.05
2022-11-13T12:16:25.392Z,13.05
2022-11-13T12:17:22.332Z,13.09
2022-11-13T12:18:19.548Z,13.12
2022-11-13T12:19:19.305Z,13.16
2022-11-13T12:20:19.334Z,13.13
2022-11-13T12:21:19.595Z,13.13
2022-11-13T12:22:19.355Z,13.11
2022-11-13T12:23:19.746Z,13.18
2022-11-13T12:24:19.667Z,13.15
2022-11-13T12:25:19.414Z,13.16
2022-11-13T12:26:19.436Z,13.2
2022-11-13T12:27:19.676Z,13.15
2022-11-13T12:28:19.715Z,13.25
2022-11-13T12:29:19.770Z,13.25
2022-11-13T12:30:19.507Z,13.28
2022-11-13T12:31:19.511Z,13.22
2022-11-13T12:32:19.531Z,13.13
2022-11-13T12:33:19.814Z,13.15
2022-11-13T12:34:19.589Z,13.18
2022-11-13T12:35:19.839Z,13.16
2022-11-13T12:36:19.603Z,13.28
2022-11-13T12:37:19.887Z,13.3
2022-11-13T12:38:19.985Z,13.28
2022-11-13T12:39:20.040Z,13.27
2022-11-13T12:40:19.684Z,13.28
2022-11-13T12:41:19.704Z,13.44
2022-11-13T12:42:19.957Z,13.38
2022-11-13T12:43:20.223Z,13.41
2022-11-13T12:44:19.992Z,13.38
2022-11-13T12:45:19.756Z,13.46
2022-11-13T12:46:20.057Z,13.46
2022-11-13T12:47:20.051Z,13.46
2022-11-13T12:48:20.068Z,13.59
2022-11-13T12:49:19.568Z,13.52
2022-11-13T12:50:19.851Z,13.62
2022-11-13T12:51:20.123Z,13.62
2022-11-13T12:52:19.624Z,13.62
2022-11-13T12:53:20.156Z,13.7
2022-11-13T12:54:20.171Z,13.71
2022-11-13T12:55:20.311Z,13.72
2022-11-13T12:56:20.250Z,13.71
2022-11-13T12:57:20.227Z,13.71